Time;durP1;ratioP1;P1;durP2;ratioP2;P2;SDS_P1;SDS_P2;PMS_P1;PMS_P2;Temp;Humidity;BMP_temperature;BMP_pressure;BME280_temperature;BME280_humidity;BME280_pressure;Samples;Min_cycle;Max_cycle;Signal;HPM_P1;HPM_P2
2022/07/23 00:00:29;;;;;;;9.40;6.20;;;;;;;25.10;54.22;99489.84;5110626;28;20273;-56
2022/07/23 00:02:56;;;;;;;10.73;5.85;;;;;;;25.08;54.06;99485.66;5110195;28;20198;-55
2022/07/23 00:05:25;;;;;;;9.48;5.40;;;;;;;25.06;54.49;99490.25;5110372;28;20609;-55
2022/07/23 00:07:52;;;;;;;10.82;5.80;;;;;;;24.94;54.84;99497.53;5110038;28;20289;-56
2022/07/23 00:10:19;;;;;;;6.95;6.07;;;;;;;24.89;54.82;99494.38;5110033;28;20252;-55
2022/07/23 00:12:45;;;;;;;6.43;5.40;;;;;;;24.83;55.28;99490.44;5109966;28;20285;-55
2022/07/23 00:15:12;;;;;;;8.13;5.57;;;;;;;24.81;55.36;99488.91;5109806;28;20199;-56
2022/07/23 00:17:39;;;;;;;8.55;6.10;;;;;;;24.76;55.29;99486.66;5109799;28;20201;-55
2022/07/23 00:20:08;;;;;;;7.15;5.85;;;;;;;24.75;55.31;99487.63;5109827;28;20277;-56
2022/07/23 00:22:36;;;;;;;9.10;6.00;;;;;;;24.70;55.70;99486.38;5109635;28;20289;-55
2022/07/23 00:25:03;;;;;;;11.10;5.93;;;;;;;24.66;55.88;99492.91;5109720;28;20197;-55
2022/07/23 00:27:30;;;;;;;8.57;5.65;;;;;;;24.59;56.36;99490.81;5109923;28;20676;-56
2022/07/23 00:29:57;;;;;;;9.52;6.13;;;;;;;24.52;57.07;99494.09;5109807;28;20313;-56
2022/07/23 00:32:24;;;;;;;8.57;6.38;;;;;;;24.47;58.03;99485.72;5109669;28;20205;-55
2022/07/23 00:34:51;;;;;;;14.95;8.68;;;;;;;24.54;60.36;99485.03;5109788;28;20194;-55
2022/07/23 00:37:18;;;;;;;14.50;9.65;;;;;;;24.57;61.17;99487.44;5111670;28;20230;-56
2022/07/23 00:39:46;;;;;;;14.82;13.07;;;;;;;24.67;61.74;99483.97;5113859;28;20218;-55
2022/07/23 00:42:13;;;;;;;22.00;15.63;;;;;;;24.69;62.27;99495.31;5113709;28;20199;-55
2022/07/23 00:44:40;;;;;;;24.25;16.98;;;;;;;24.53;62.50;99474.56;5113763;28;20562;-55
2022/07/23 00:47:07;;;;;;;27.38;17.15;;;;;;;24.59;63.26;99490.81;5113581;28;20341;-55
2022/07/23 00:49:34;;;;;;;22.52;17.75;;;;;;;24.51;63.83;99498.56;5113528;28;20222;-56
2022/07/23 00:52:03;;;;;;;21.35;17.48;;;;;;;24.42;64.61;99504.69;5113726;28;20196;-64
2022/07/23 00:54:30;;;;;;;21.20;17.50;;;;;;;24.33;65.27;99505.47;5113619;28;20194;-64
2022/07/23 00:56:59;;;;;;;20.23;16.08;;;;;;;24.34;64.85;99506.31;5113569;28;20289;-63
2022/07/23 00:59:25;;;;;;;17.02;14.32;;;;;;;24.34;65.28;99508.97;5113701;28;20580;-63
2022/07/23 01:01:52;;;;;;;19.90;15.27;;;;;;;24.34;64.97;99504.50;5113677;28;20303;-63
2022/07/23 01:04:19;;;;;;;19.55;13.80;;;;;;;24.37;64.81;99500.75;5113569;28;20580;-62
2022/07/23 01:06:46;;;;;;;21.83;15.13;;;;;;;24.35;65.25;99506.19;5113281;28;20198;-62
2022/07/23 01:09:13;;;;;;;17.90;13.60;;;;;;;24.30;65.22;99508.38;5113410;28;20271;-63
2022/07/23 01:11:41;;;;;;;18.38;12.23;;;;;;;24.21;65.42;99501.19;5113140;28;20350;-63
2022/07/23 01:14:12;;;;;;;15.45;12.65;;;;;;;24.14;65.77;99494.72;5113588;28;20197;-63
2022/07/23 01:16:39;;;;;;;18.95;13.90;;;;;;;23.99;65.78;99480.94;5113223;28;20577;-63
2022/07/23 01:19:06;;;;;;;18.38;14.45;;;;;;;23.96;66.44;99488.31;5113073;28;20194;-63
2022/07/23 01:21:37;;;;;;;17.42;14.60;;;;;;;23.96;66.79;99499.75;5113632;28;20190;-63
2022/07/23 01:24:06;;;;;;;19.92;13.35;;;;;;;23.97;67.07;99495.31;5113007;28;20735;-63
2022/07/23 01:26:33;;;;;;;19.42;13.02;;;;;;;24.01;67.23;99491.44;5113307;28;20244;-63
2022/07/23 01:29:00;;;;;;;16.70;13.00;;;;;;;24.05;67.04;99492.84;5113016;28;20352;-62
2022/07/23 01:31:27;;;;;;;18.10;13.15;;;;;;;23.96;67.45;99491.81;5112907;28;20214;-63
2022/07/23 01:33:54;;;;;;;17.42;13.07;;;;;;;23.94;67.92;99492.91;5112827;28;20194;-63
2022/07/23 01:36:21;;;;;;;19.88;13.77;;;;;;;23.85;68.02;99498.00;5112825;28;20285;-63
2022/07/23 01:38:48;;;;;;;20.70;15.23;;;;;;;23.88;67.58;99500.41;5112646;28;20220;-63
2022/07/23 01:41:17;;;;;;;22.25;15.38;;;;;;;23.77;68.18;99483.72;5112646;28;20194;-62
2022/07/23 01:43:44;;;;;;;17.55;13.88;;;;;;;23.74;67.83;99498.06;5112539;28;20193;-62
2022/07/23 01:46:11;;;;;;;23.23;13.98;;;;;;;23.76;68.37;99490.84;5112497;28;20201;-62
2022/07/23 01:48:38;;;;;;;16.92;13.70;;;;;;;23.65;68.79;99504.16;5112157;28;20237;-63
2022/07/23 01:51:06;;;;;;;26.58;15.23;;;;;;;23.65;67.10;99504.16;5112536;28;20599;-55
2022/07/23 01:53:33;;;;;;;23.20;15.48;;;;;;;23.61;65.98;99492.09;5112730;28;20234;-55
2022/07/23 01:56:00;;;;;;;22.27;16.48;;;;;;;23.52;66.22;99490.22;5112968;28;20608;-55
2022/07/23 01:58:28;;;;;;;20.80;16.15;;;;;;;23.47;66.16;99497.69;5112286;28;20195;-63
2022/07/23 02:00:56;;;;;;;27.67;16.73;;;;;;;23.41;66.02;99492.88;5112349;28;20198;-63
2022/07/23 02:03:23;;;;;;;18.77;16.58;;;;;;;23.50;65.42;99494.81;5112257;28;20191;-55
2022/07/23 02:05:50;;;;;;;28.55;16.52;;;;;;;23.44;65.46;99495.28;5112109;28;20233;-55
2022/07/23 02:08:18;;;;;;;22.63;16.65;;;;;;;23.40;65.56;99496.50;5112266;28;20202;-55
2022/07/23 02:10:46;;;;;;;21.85;15.75;;;;;;;23.42;65.36;99502.50;5111979;28;20229;-56
2022/07/23 02:13:13;;;;;;;20.60;16.30;;;;;;;23.40;65.17;99499.16;5112017;28;20198;-54
2022/07/23 02:15:42;;;;;;;20.42;17.75;;;;;;;23.39;65.28;99500.94;5111950;28;20289;-55
2022/07/23 02:18:09;;;;;;;23.95;19.27;;;;;;;23.39;65.01;99495.66;5112055;28;20199;-54
2022/07/23 02:20:38;;;;;;;26.90;19.73;;;;;;;23.33;65.22;99500.63;5112382;28;20198;-55
2022/07/23 02:23:06;;;;;;;26.67;19.70;;;;;;;23.25;65.80;99495.94;5111897;28;20252;-55
2022/07/23 02:25:33;;;;;;;28.88;19.75;;;;;;;23.30;65.50;99496.41;5111783;28;20209;-55
2022/07/23 02:28:00;;;;;;;28.98;20.15;;;;;;;23.21;66.25;99496.31;5111761;28;20237;-56
2022/07/23 02:30:27;;;;;;;29.27;19.20;;;;;;;23.20;66.40;99499.94;5111569;28;20219;-56
2022/07/23 02:32:56;;;;;;;24.50;18.25;;;;;;;23.11;67.06;99499.72;5111628;28;20200;-56
2022/07/23 02:35:22;;;;;;;25.27;18.95;;;;;;;23.04;67.73;99505.63;5111548;28;20290;-55
2022/07/23 02:37:49;;;;;;;28.40;18.05;;;;;;;22.96;68.29;99495.66;5111733;28;20198;-63
2022/07/23 02:40:16;;;;;;;24.70;19.33;;;;;;;22.91;68.59;99497.81;5111692;28;20640;-63
2022/07/23 02:42:43;;;;;;;28.20;21.30;;;;;;;22.88;69.14;99498.09;5111501;28;20220;-55
2022/07/23 02:45:11;;;;;;;27.30;20.27;;;;;;;22.95;68.98;99504.56;5111460;28;20198;-56
2022/07/23 02:47:38;;;;;;;26.95;19.60;;;;;;;22.89;69.28;99496.28;5111422;28;20233;-56
2022/07/23 02:50:07;;;;;;;23.58;19.75;;;;;;;22.85;69.34;99500.97;5111248;28;20209;-63
2022/07/23 02:52:34;;;;;;;22.95;17.55;;;;;;;22.86;69.49;99504.44;5111257;28;20191;-63
2022/07/23 02:55:01;;;;;;;20.73;16.58;;;;;;;22.97;68.62;99499.97;5111303;28;20675;-63
2022/07/23 02:57:28;;;;;;;18.35;14.95;;;;;;;23.01;67.98;99498.78;5111104;28;20201;-63
2022/07/23 02:59:55;;;;;;;18.88;14.50;;;;;;;23.08;67.24;99499.97;5110949;28;20203;-63
2022/07/23 03:02:22;;;;;;;19.75;14.25;;;;;;;23.14;67.40;99506.56;5111401;28;20588;-63
2022/07/23 03:04:49;;;;;;;16.60;13.15;;;;;;;23.13;67.32;99503.09;5111193;28;20278;-56
2022/07/23 03:07:18;;;;;;;24.65;20.52;;;;;;;23.13;67.18;99500.44;5111278;27;20318;-56
2022/07/23 03:09:45;;;;;;;19.48;13.18;;;;;;;23.21;67.34;99496.31;5110960;28;20199;-56
2022/07/23 03:12:12;;;;;;;23.80;13.65;;;;;;;23.16;67.46;99516.06;5111061;28;20229;-56
2022/07/23 03:14:39;;;;;;;16.92;13.13;;;;;;;23.17;67.48;99503.66;5110825;28;20615;-56
2022/07/23 03:17:06;;;;;;;18.85;13.20;;;;;;;23.18;67.57;99506.19;5111095;28;20201;-56
2022/07/23 03:19:33;;;;;;;13.95;12.18;;;;;;;23.20;67.36;99503.44;5110877;28;20640;-63
2022/07/23 03:21:59;;;;;;;13.85;12.23;;;;;;;23.24;67.35;99509.31;5110878;28;20208;-62
2022/07/23 03:24:53;;;;;;;13.85;12.25;;;;;;;23.28;67.17;99516.88;5110605;28;20199;-63
2022/07/23 03:27:15;;;;;;;14.98;12.32;;;;;;;23.38;67.35;99524.91;5110512;28;20202;-62
2022/07/23 03:29:42;;;;;;;16.77;12.43;;;;;;;23.38;67.57;99515.16;5111042;28;20191;-63
2022/07/23 03:32:09;;;;;;;17.05;12.52;;;;;;;23.37;67.06;99517.94;5110425;28;20222;-62
2022/07/23 03:34:36;;;;;;;16.90;13.90;;;;;;;23.39;66.74;99526.59;5110470;28;20578;-62
2022/07/23 03:37:04;;;;;;;17.65;15.57;;;;;;;23.38;66.97;99524.91;5110528;28;20593;-63
2022/07/23 03:39:32;;;;;;;19.85;15.73;;;;;;;23.48;66.57;99517.91;5110216;28;20202;-64
2022/07/23 03:41:59;;;;;;;18.08;15.75;;;;;;;23.58;65.67;99526.00;5110392;28;20191;-63
2022/07/23 03:44:26;;;;;;;18.27;13.50;;;;;;;23.62;64.82;99517.63;5110697;28;20268;-64
2022/07/23 03:46:53;;;;;;;14.93;12.07;;;;;;;23.68;64.04;99534.84;5110303;28;20195;-63
2022/07/23 03:49:20;;;;;;;19.90;12.25;;;;;;;23.77;63.14;99524.34;5110735;27;20317;-63
2022/07/23 03:51:47;;;;;;;18.10;12.80;;;;;;;23.94;62.60;99527.38;5110101;28;20238;-63
2022/07/23 03:54:14;;;;;;;15.63;13.15;;;;;;;24.10;61.56;99522.47;5110129;28;20195;-63
2022/07/23 03:56:43;;;;;;;16.60;13.40;;;;;;;24.26;60.90;99524.72;5110289;28;20736;-63
2022/07/23 03:59:10;;;;;;;12.90;11.48;;;;;;;24.66;59.23;99522.94;5110138;28;20217;-63
2022/07/23 04:01:37;;;;;;;12.80;11.25;;;;;;;25.62;55.79;99527.72;5110126;28;20676;-63
2022/07/23 04:04:04;;;;;;;15.13;11.57;;;;;;;26.67;51.86;99529.38;5110005;28;20285;-62
2022/07/23 04:06:32;;;;;;;13.52;12.15;;;;;;;27.57;49.34;99533.13;5109878;28;20190;-63
2022/07/23 04:08:59;;;;;;;12.65;11.35;;;;;;;28.11;46.76;99516.06;5110211;28;20202;-63
2022/07/23 04:11:27;;;;;;;12.82;11.77;;;;;;;28.95;45.15;99534.13;5108876;28;20230;-63
2022/07/23 04:13:55;;;;;;;13.85;12.48;;;;;;;29.84;42.99;99542.41;5110220;28;20190;-63
2022/07/23 04:16:22;;;;;;;17.27;12.65;;;;;;;30.70;40.71;99534.63;5109882;28;20198;-63
2022/07/23 04:18:49;;;;;;;16.42;12.85;;;;;;;31.42;38.90;99545.22;5109983;28;20198;-64
2022/07/23 04:21:19;;;;;;;19.67;13.20;;;;;;;32.02;37.65;99548.03;5109947;28;20186;-56
2022/07/23 04:23:46;;;;;;;14.88;13.10;;;;;;;32.85;35.93;99557.78;5110252;28;20327;-56
2022/07/23 04:26:12;;;;;;;16.10;13.73;;;;;;;33.87;34.17;99554.91;5109975;28;20587;-55
2022/07/23 04:28:39;;;;;;;17.67;14.05;;;;;;;34.57;32.96;99555.91;5110179;28;20955;-55
2022/07/23 04:31:08;;;;;;;20.38;14.63;;;;;;;34.38;33.09;99559.31;5109840;28;20244;-55
2022/07/23 04:33:35;;;;;;;19.02;14.77;;;;;;;34.98;32.30;99566.75;5109675;28;20241;-56
2022/07/23 04:36:02;;;;;;;15.68;13.55;;;;;;;35.81;30.92;99562.91;5109686;28;20694;-55
2022/07/23 04:38:29;;;;;;;16.90;14.30;;;;;;;36.32;30.22;99559.66;5110063;28;20206;-55
2022/07/23 04:40:56;;;;;;;15.65;13.98;;;;;;;37.21;29.21;99561.75;5109805;28;20190;-55
2022/07/23 04:43:22;;;;;;;15.25;13.27;;;;;;;37.41;28.27;99562.47;5109752;28;20690;-55
2022/07/23 04:45:49;;;;;;;16.00;13.88;;;;;;;37.79;27.56;99557.91;5109770;28;20564;-55
2022/07/23 04:48:18;;;;;;;14.60;13.20;;;;;;;38.28;27.63;99569.00;5109582;28;20241;-55
2022/07/23 04:50:45;;;;;;;14.70;13.35;;;;;;;38.96;26.85;99572.50;5109658;28;20205;-55
2022/07/23 04:53:11;;;;;;;15.10;13.55;;;;;;;39.20;26.31;99560.75;5109601;28;20198;-57
2022/07/23 04:55:38;;;;;;;20.10;13.85;;;;;;;39.41;26.06;99574.91;5109697;28;20281;-55
2022/07/23 04:58:05;;;;;;;15.63;14.13;;;;;;;40.02;25.64;99571.94;5109527;28;20201;-57
2022/07/23 05:00:32;;;;;;;15.05;13.15;;;;;;;40.60;25.14;99576.63;5109541;28;20201;-56
2022/07/23 05:02:59;;;;;;;14.65;12.85;;;;;;;40.85;24.75;99574.50;5109457;28;20627;-56
2022/07/23 05:05:27;;;;;;;17.80;14.38;;;;;;;40.51;24.92;99564.44;5109434;28;20198;-55
2022/07/23 05:07:54;;;;;;;15.60;14.20;;;;;;;40.69;24.73;99571.63;5109462;28;20194;-56
2022/07/23 05:10:21;;;;;;;16.20;14.50;;;;;;;41.36;24.18;99574.72;5109764;28;20198;-56
2022/07/23 05:12:48;;;;;;;15.70;14.07;;;;;;;41.15;24.14;99579.78;5109391;28;20229;-56
2022/07/23 05:15:15;;;;;;;18.77;15.07;;;;;;;41.61;23.52;99583.41;5109323;28;20204;-56
2022/07/23 05:17:42;;;;;;;16.63;14.85;;;;;;;41.46;24.00;99574.91;5109302;28;20198;-56
2022/07/23 05:20:10;;;;;;;18.00;16.27;;;;;;;41.64;23.47;99572.84;5109385;28;20190;-57
2022/07/23 05:22:38;;;;;;;19.38;16.42;;;;;;;41.98;23.45;99572.94;5110020;28;20190;-56
2022/07/23 05:25:06;;;;;;;20.85;17.85;;;;;;;42.22;23.33;99568.94;5113081;28;20228;-56
2022/07/23 05:27:33;;;;;;;21.23;19.08;;;;;;;42.86;22.12;99574.84;5113017;28;20211;-55
2022/07/23 05:30:00;;;;;;;24.17;21.60;;;;;;;43.28;21.69;99571.56;5112924;28;20289;-56
2022/07/23 05:32:27;;;;;;;25.02;22.65;;;;;;;42.65;22.89;99568.25;5113108;28;20610;-55
2022/07/23 05:34:54;;;;;;;27.65;24.70;;;;;;;42.57;23.20;99559.66;5113369;28;20198;-55
2022/07/23 05:37:21;;;;;;;24.95;22.45;;;;;;;42.33;22.57;99557.09;5113076;28;20197;-55
2022/07/23 05:39:49;;;;;;;22.15;19.85;;;;;;;41.96;23.16;99558.72;5112924;28;20602;-56
2022/07/23 05:42:16;;;;;;;19.17;16.90;;;;;;;41.99;23.50;99560.94;5112806;28;20182;-56
2022/07/23 05:44:44;;;;;;;18.52;16.63;;;;;;;41.98;23.38;99559.28;5112613;28;20197;-56
2022/07/23 05:47:10;;;;;;;17.30;14.55;;;;;;;41.63;23.79;99557.56;5112646;28;20234;-64
2022/07/23 05:49:38;;;;;;;21.50;13.55;;;;;;;41.65;24.01;99562.78;5112587;28;20196;-64
2022/07/23 05:52:06;;;;;;;16.85;14.48;;;;;;;42.10;23.55;99557.31;5112643;28;20706;-64
2022/07/23 05:54:36;;;;;;;19.17;13.73;;;;;;;41.44;23.84;99566.16;5112525;28;20263;-63
2022/07/23 05:57:04;;;;;;;17.27;14.27;;;;;;;41.98;23.12;99567.47;5112296;28;20198;-64
2022/07/23 05:59:31;;;;;;;17.30;12.30;;;;;;;42.39;23.04;99567.06;5112451;28;20195;-64
2022/07/23 06:01:58;;;;;;;13.73;11.88;;;;;;;42.91;22.49;99577.63;5112600;28;20216;-63
2022/07/23 06:04:25;;;;;;;13.63;12.23;;;;;;;43.04;22.30;99571.78;5112452;28;20202;-63
2022/07/23 06:06:52;;;;;;;22.77;13.63;;;;;;;43.41;22.22;99571.16;5112568;28;20202;-63
2022/07/23 06:09:19;;;;;;;12.75;11.48;;;;;;;42.84;22.44;99570.72;5112337;28;20408;-63
2022/07/23 06:11:46;;;;;;;12.35;11.13;;;;;;;43.21;22.06;99565.47;5111933;28;20222;-63
2022/07/23 06:14:14;;;;;;;15.60;10.38;;;;;;;43.09;22.54;99568.31;5112166;28;20194;-63
2022/07/23 06:16:41;;;;;;;12.63;10.23;;;;;;;42.82;22.06;99562.75;5111869;28;20198;-63
2022/07/23 06:19:08;;;;;;;15.38;10.40;;;;;;;43.33;22.25;99566.16;5112073;28;20725;-64
2022/07/23 06:21:35;;;;;;;15.65;9.80;;;;;;;43.01;21.66;99572.28;5111822;28;20190;-63
2022/07/23 06:24:02;;;;;;;19.38;9.02;;;;;;;42.69;21.92;99563.09;5111917;28;20194;-64
2022/07/23 06:26:29;;;;;;;10.75;9.65;;;;;;;42.00;22.72;99566.13;5111800;28;20595;-56
2022/07/23 06:28:56;;;;;;;11.07;9.68;;;;;;;41.50;23.42;99568.75;5112304;28;20190;-56
2022/07/23 06:31:24;;;;;;;11.43;9.32;;;;;;;41.70;23.53;99565.59;5111638;28;20225;-63
2022/07/23 06:33:51;;;;;;;9.63;8.70;;;;;;;41.49;24.08;99560.81;5110959;28;20205;-64
2022/07/23 06:36:18;;;;;;;12.13;9.20;;;;;;;41.85;23.58;99565.88;5111473;28;20277;-64
2022/07/23 06:38:45;;;;;;;9.45;8.60;;;;;;;42.14;23.07;99561.19;5111356;28;20258;-64
2022/07/23 06:41:12;;;;;;;10.07;8.55;;;;;;;41.90;23.88;99554.19;5111810;28;20215;-64
2022/07/23 06:43:39;;;;;;;8.75;8.05;;;;;;;41.93;23.48;99559.16;5111664;28;20194;-64
2022/07/23 06:46:06;;;;;;;12.70;8.20;;;;;;;42.07;23.24;99559.69;5111386;28;20198;-63
2022/07/23 06:48:35;;;;;;;9.07;8.27;;;;;;;41.53;23.82;99557.38;5111060;28;20261;-63
2022/07/23 06:51:02;;;;;;;10.15;8.25;;;;;;;41.49;24.14;99552.63;5111538;28;20728;-64
2022/07/23 06:53:29;;;;;;;9.25;8.35;;;;;;;40.67;24.71;99552.00;5111308;28;20316;-64
2022/07/23 06:55:56;;;;;;;14.20;8.20;;;;;;;40.15;25.08;99541.81;5111642;28;20204;-63
2022/07/23 06:58:23;;;;;;;15.00;7.90;;;;;;;40.01;25.48;99539.56;5111474;28;20711;-64
2022/07/23 07:00:50;;;;;;;8.15;7.35;;;;;;;40.73;25.02;99535.59;5111108;28;20204;-63
2022/07/23 07:03:18;;;;;;;14.75;8.73;;;;;;;40.76;25.24;99532.34;5111133;28;20197;-63
2022/07/23 07:05:46;;;;;;;8.90;7.78;;;;;;;39.83;25.59;99532.31;5110958;28;20208;-63
2022/07/23 07:08:13;;;;;;;11.77;8.13;;;;;;;39.52;26.15;99528.78;5110953;28;20193;-63
2022/07/23 07:10:40;;;;;;;16.25;9.70;;;;;;;39.61;25.88;99526.59;5111220;28;20189;-63
2022/07/23 07:13:07;;;;;;;10.45;7.80;;;;;;;39.84;25.96;99532.09;5110757;28;20214;-63
2022/07/23 07:15:34;;;;;;;9.10;8.15;;;;;;;40.24;25.34;99525.97;5110686;28;20204;-63
2022/07/23 07:18:01;;;;;;;10.20;7.30;;;;;;;40.23;25.71;99527.03;5111022;28;20694;-63
2022/07/23 07:20:28;;;;;;;9.88;6.90;;;;;;;40.42;25.06;99525.88;5110794;28;20191;-64
2022/07/23 07:22:57;;;;;;;11.70;7.20;;;;;;;40.58;25.03;99519.72;5110914;28;20642;-65
2022/07/23 07:25:24;;;;;;;9.02;8.10;;;;;;;40.28;24.87;99521.75;5110685;28;20205;-63
2022/07/23 07:27:50;;;;;;;11.10;6.60;;;;;;;40.12;24.76;99515.09;5110645;28;20220;-63
2022/07/23 07:30:17;;;;;;;9.88;7.47;;;;;;;40.39;24.97;99514.66;5110481;28;20284;-63
2022/07/23 07:32:44;;;;;;;9.60;7.38;;;;;;;40.50;24.53;99522.81;5110345;28;20217;-64
2022/07/23 07:35:11;;;;;;;9.73;7.82;;;;;;;40.43;24.65;99524.81;5110426;28;20675;-64
2022/07/23 07:37:38;;;;;;;8.27;7.50;;;;;;;41.11;24.27;99523.25;5110362;28;20198;-63
2022/07/23 07:40:08;;;;;;;12.85;7.88;;;;;;;41.47;24.03;99520.19;5110300;28;20198;-55
2022/07/23 07:42:35;;;;;;;8.38;7.25;;;;;;;41.16;23.61;99515.22;5110307;28;20198;-56
2022/07/23 07:45:02;;;;;;;10.82;6.85;;;;;;;41.44;22.94;99511.66;5110418;28;20669;-64
2022/07/23 07:47:29;;;;;;;9.07;6.40;;;;;;;41.54;23.26;99503.72;5110158;28;20779;-64
2022/07/23 07:49:56;;;;;;;13.02;7.57;;;;;;;42.11;22.52;99507.09;5110592;28;20194;-64
2022/07/23 07:52:22;;;;;;;7.93;7.07;;;;;;;42.88;22.00;99506.31;5110026;28;20214;-64
2022/07/23 07:54:49;;;;;;;11.02;6.85;;;;;;;43.17;21.80;99505.03;5110335;28;20588;-63
2022/07/23 07:57:18;;;;;;;9.10;7.30;;;;;;;44.05;20.94;99514.63;5110080;28;20201;-63
2022/07/23 07:59:45;;;;;;;9.00;8.20;;;;;;;44.48;20.25;99510.81;5109990;28;20201;-63
2022/07/23 08:02:11;;;;;;;14.15;7.25;;;;;;;44.06;20.59;99509.97;5109985;28;20286;-63
2022/07/23 08:04:38;;;;;;;14.02;7.75;;;;;;;44.01;20.78;99504.50;5110213;28;20296;-63
2022/07/23 08:07:05;;;;;;;9.43;7.72;;;;;;;44.01;20.57;99504.50;5110028;28;20201;-63
2022/07/23 08:09:32;;;;;;;8.85;6.70;;;;;;;44.54;20.37;99503.47;5109993;28;20198;-63
2022/07/23 08:11:59;;;;;;;6.47;6.05;;;;;;;44.59;20.19;99499.94;5110343;28;20218;-63
2022/07/23 08:14:27;;;;;;;10.32;6.38;;;;;;;44.91;19.80;99508.03;5109939;28;20288;-64
2022/07/23 08:16:54;;;;;;;6.82;5.63;;;;;;;45.06;19.49;99510.81;5109696;28;20212;-63
2022/07/23 08:19:21;;;;;;;9.13;6.35;;;;;;;45.14;19.47;99507.59;5110040;28;20194;-64
2022/07/23 08:21:48;;;;;;;10.25;6.72;;;;;;;45.10;19.60;99496.31;5109970;28;20668;-64
2022/07/23 08:24:15;;;;;;;11.25;6.28;;;;;;;44.81;19.68;99487.72;5109915;28;20202;-64
2022/07/23 08:26:42;;;;;;;9.50;6.38;;;;;;;44.25;19.70;99486.56;5109748;28;20208;-63
2022/07/23 08:29:10;;;;;;;8.60;6.20;;;;;;;44.39;19.63;99474.09;5109837;28;20194;-55
2022/07/23 08:31:40;;;;;;;7.25;6.65;;;;;;;44.89;19.79;99472.69;5109822;28;20198;-62
2022/07/23 08:34:06;;;;;;;19.05;6.65;;;;;;;45.00;19.61;99482.56;5109774;28;20201;-63
2022/07/23 08:36:33;;;;;;;13.05;6.70;;;;;;;44.83;19.97;99476.47;5109817;28;20198;-63
2022/07/23 08:39:03;;;;;;;9.10;6.68;;;;;;;44.04;20.10;99466.47;5109776;28;20675;-64
2022/07/23 08:41:30;;;;;;;9.88;6.40;;;;;;;43.33;20.99;99465.03;5109605;28;20293;-63
2022/07/23 08:44:00;;;;;;;12.05;7.00;;;;;;;42.80;20.70;99463.88;5109493;28;20197;-63
2022/07/23 08:46:28;;;;;;;8.40;6.20;;;;;;;42.54;21.04;99461.91;5109602;28;20190;-64
2022/07/23 08:48:57;;;;;;;13.00;6.47;;;;;;;42.89;21.23;99461.56;5109286;28;20269;-64
2022/07/23 08:51:27;;;;;;;11.20;9.32;;;;;;;42.81;20.56;99457.34;5109561;28;20201;-63
2022/07/23 08:53:57;;;;;;;17.15;9.02;;;;;;;42.74;20.64;99449.34;5109362;28;20221;-63
2022/07/23 08:56:24;;;;;;;7.40;5.82;;;;;;;42.57;20.95;99453.19;5109390;28;20289;-63
2022/07/23 08:58:51;;;;;;;9.85;5.80;;;;;;;42.75;21.32;99452.91;5112385;28;20589;-63
2022/07/23 09:01:18;;;;;;;6.53;5.95;;;;;;;42.74;20.77;99446.59;5113662;28;20586;-63
2022/07/23 09:03:46;;;;;;;6.25;5.60;;;;;;;42.50;20.63;99444.41;5113404;28;20206;-63
2022/07/23 09:06:14;;;;;;;6.45;5.50;;;;;;;41.64;21.44;99441.19;5113370;28;20251;-63
2022/07/23 09:08:42;;;;;;;11.30;6.35;;;;;;;42.00;21.17;99439.84;5113151;28;20194;-64
2022/07/23 09:11:10;;;;;;;9.77;6.55;;;;;;;42.17;20.92;99437.94;5113369;28;20198;-64
2022/07/23 09:13:41;;;;;;;10.73;6.35;;;;;;;41.96;21.03;99434.09;5113408;28;20218;-64
2022/07/23 09:16:12;;;;;;;10.45;6.78;;;;;;;42.18;20.47;99444.22;5113443;28;20190;-63
2022/07/23 09:18:43;;;;;;;9.77;6.55;;;;;;;42.23;20.54;99426.00;5113385;28;20663;-63
2022/07/23 09:21:23;;;;;;;18.75;16.77;;;;;;;42.17;20.96;99440.66;5113288;28;20243;-64
2022/07/23 09:23:58;;;;;;;15.65;10.98;;;;;;;42.60;20.68;99439.06;5113087;28;20201;-63
2022/07/23 09:26:36;;;;;;;5.88;5.38;;;;;;;42.30;20.44;99436.75;5113094;28;20205;-63
2022/07/23 09:29:09;;;;;;;9.68;6.00;;;;;;;42.47;20.28;99444.88;5112985;28;20198;-63
2022/07/23 09:31:45;;;;;;;9.85;6.63;;;;;;;42.47;20.66;99432.06;5112802;28;20194;-63
2022/07/23 09:34:15;;;;;;;7.55;6.78;;;;;;;42.68;20.70;99428.50;5112741;28;20221;-63
2022/07/23 09:36:44;;;;;;;11.80;6.82;;;;;;;42.51;20.52;99426.94;5113093;28;20198;-63
2022/07/23 09:39:11;;;;;;;7.03;6.35;;;;;;;42.46;20.42;99429.59;5112857;28;20200;-63
2022/07/23 09:41:41;;;;;;;9.82;5.32;;;;;;;42.30;20.02;99423.94;5112764;28;20693;-64
2022/07/23 09:44:13;;;;;;;15.68;5.80;;;;;;;42.51;20.07;99419.56;5112681;28;20235;-63
2022/07/23 09:46:41;;;;;;;12.10;5.75;;;;;;;42.73;19.76;99416.84;5112776;28;20288;-63
2022/07/23 09:49:14;;;;;;;11.77;5.60;;;;;;;42.98;19.67;99419.88;5112756;27;20278;-63
2022/07/23 09:51:52;;;;;;;7.05;5.35;;;;;;;42.82;19.64;99409.03;5112913;28;20221;-63
2022/07/23 09:54:30;;;;;;;6.97;5.72;;;;;;;42.89;19.36;99410.50;5112463;28;20814;-64
2022/07/23 09:56:58;;;;;;;6.68;5.10;;;;;;;42.96;18.76;99411.09;5112285;28;20204;-63
2022/07/23 09:59:27;;;;;;;10.27;5.78;;;;;;;43.16;18.72;99409.63;5112656;28;20235;-63
2022/07/23 10:01:56;;;;;;;7.93;5.20;;;;;;;42.89;18.82;99407.75;5112239;28;20213;-56
2022/07/23 10:04:24;;;;;;;8.30;5.30;;;;;;;42.93;18.24;99408.88;5112369;28;20190;-56
2022/07/23 10:06:54;;;;;;;5.07;4.60;;;;;;;43.18;18.01;99408.34;5112221;28;20202;-55
2022/07/23 10:09:25;;;;;;;6.32;5.45;;;;;;;43.40;18.10;99409.06;5112011;28;20202;-55
2022/07/23 10:11:57;;;;;;;6.68;5.07;;;;;;;43.46;17.90;99409.94;5112342;28;20220;-55
2022/07/23 10:14:24;;;;;;;6.30;5.75;;;;;;;43.04;17.96;99402.44;5112115;28;20516;-55
2022/07/23 10:16:51;;;;;;;6.38;5.72;;;;;;;42.65;18.32;99396.28;5112099;28;20684;-55
2022/07/23 10:19:19;;;;;;;5.78;5.30;;;;;;;42.11;18.79;99392.56;5112035;28;20284;-56
2022/07/23 10:21:49;;;;;;;8.18;5.85;;;;;;;41.80;18.62;99391.28;5111816;28;20284;-55
2022/07/23 10:24:29;;;;;;;9.88;5.25;;;;;;;41.61;18.92;99398.09;5112158;28;20190;-56
2022/07/23 10:27:13;;;;;;;8.85;5.88;;;;;;;41.63;19.18;99391.31;5111893;28;20193;-56
2022/07/23 10:29:48;;;;;;;5.75;5.07;;;;;;;41.22;19.12;99387.06;5111740;28;20202;-56
2022/07/23 10:32:32;;;;;;;6.85;5.30;;;;;;;40.96;19.35;99379.50;5111795;28;20204;-63
2022/07/23 10:35:09;;;;;;;9.18;5.45;;;;;;;40.81;19.38;99377.31;5111891;28;20198;-64
2022/07/23 10:37:40;;;;;;;9.48;5.40;;;;;;;40.50;19.71;99375.88;5111762;28;20198;-63
2022/07/23 10:40:13;;;;;;;10.88;6.47;;;;;;;40.36;19.41;99384.56;5111603;28;20587;-63
2022/07/23 10:42:41;;;;;;;6.43;5.55;;;;;;;40.37;19.23;99369.88;5111306;28;20589;-63
2022/07/23 10:45:27;;;;;;;11.38;6.85;;;;;;;40.33;19.05;99358.66;5111493;28;20190;-63
2022/07/23 10:47:54;;;;;;;8.65;5.82;;;;;;;40.15;19.80;99359.63;5111251;28;20230;-63
2022/07/23 10:50:23;;;;;;;11.25;7.05;;;;;;;40.32;20.26;99357.00;5111354;28;20196;-64
2022/07/23 10:53:17;;;;;;;7.50;6.00;;;;;;;40.48;20.24;99358.16;5111177;28;20233;-63
2022/07/23 10:55:54;;;;;;;7.75;6.38;;;;;;;40.04;20.12;99349.59;5111621;28;20569;-63
2022/07/23 10:58:40;;;;;;;16.60;6.30;;;;;;;39.88;20.26;99342.16;5111341;28;20727;-63
2022/07/23 11:01:34;;;;;;;9.48;5.45;;;;;;;39.81;20.65;99338.72;5111135;28;20582;-64
2022/07/23 11:04:01;;;;;;;14.90;6.10;;;;;;;40.02;20.42;99342.75;5111352;28;20686;-64
2022/07/23 11:07:01;;;;;;;11.52;7.63;;;;;;;40.04;20.54;99330.56;5110976;28;20204;-64
2022/07/23 11:09:32;;;;;;;15.40;11.40;;;;;;;40.02;19.96;99337.31;5111150;28;20618;-64
2022/07/23 11:12:32;;;;;;;12.52;6.03;;;;;;;39.63;19.50;99331.53;5111013;28;20209;-64
2022/07/23 11:15:01;;;;;;;14.40;5.85;;;;;;;39.71;18.65;99333.06;5110916;28;20243;-64
2022/07/23 11:17:29;;;;;;;12.98;8.85;;;;;;;39.84;18.94;99333.69;5111310;28;20716;-64
2022/07/23 11:20:19;;;;;;;10.50;5.38;;;;;;;39.83;18.92;99325.75;5110374;28;20667;-64
2022/07/23 11:22:55;;;;;;;8.45;6.00;;;;;;;39.49;18.55;99325.53;5110912;28;20379;-64
2022/07/23 11:25:35;;;;;;;21.20;7.80;;;;;;;39.67;18.90;99326.44;5110902;28;20578;-64
2022/07/23 11:28:15;;;;;;;10.68;7.18;;;;;;;39.72;18.21;99323.84;5110728;28;20201;-64
2022/07/23 11:30:46;;;;;;;19.23;7.25;;;;;;;39.87;18.54;99321.50;5110464;28;20197;-64